Huntingdon Valley, PA (19006)

3:54 PM EST on February 06, 2016 (GMT -0500)
Bryn Athyn | | Change Station
CLOSE
Current Station
Personal Weather Station
Location: Huntingdon Valley, PA
Elevation: 280 ft
Nearby Weather Stations

Elev 280 ft 40.13 °N, 75.06 °W | Updated 6 seconds ago

Clear
Clear
39.8 °F
Feels Like 36 °F
N
5.0
Wind Variable Wind from East
Gusts 10.0 mph

Today
High -- | Low -- °F
--% Chance of Precip.
Yesterday
High -- | Low -- °F
Precip. -- in
Pressure 30.33 in
Visibility 10.0 miles
Clouds Clear
Windchill 36 °F
Dew Point 24 °F
Humidity 52%
Rainfall 0.00 in
Snow Depth Not available.
7:04 AM 5:24 PM
Waning Crescent, 4% visible
METAR KPNE 061954Z AUTO 21008KT 10SM CLR 06/M07 A3033 RMK AO2 SLP271 T00561072 TSNO
Pressure 30.33 in
Visibility 10.0 miles
Clouds Clear
Windchill 36 °F
Dew Point 24 °F
Humidity 52%
Rainfall 0.00 in
Snow Depth Not available.
7:04 AM 5:24 PM
Waning Crescent, 4% visible
METAR KPNE 061954Z AUTO 21008KT 10SM CLR 06/M07 A3033 RMK AO2 SLP271 T00561072 TSNO

10-Day Weather Forecast

Almanac

Astronomy

Feb. 06, 2016 Rise Set
Actual Time
Civil Twilight
Nautical Twilight
Astronomical Twilight
Moon
Length of Visible Light
Length of Day
Tomorrow will be .
, % of the Moon is Illuminated

Today's Extremes

State Highs State Lows

Community

WunderPhotos

Upload Photos

1,891,046 photos uploaded!

WunderBlog® & News

Nearby

Air Quality

  Air Quality AQ Index Pollutant
Not available.

Snow Depth

Station Depth Elevation

Earthquake Activity

City Distance Mag. Time & Date
Minimum magnitude displayed is 2.5.

Coastal Water Temperatures

Place Temperature

Stations

Nearby Weather Stations

Station Location Temp. Windchill Dew Point Humidity Wind Precip. Elev Updated Type
                   

Watches & Warnings

There are currently no watches in effect.